Latest Weather Observations for Burketown Airport

IDQ60801

Issued at 11:32 pm EST Wednesday 28 September 2016 (issued every 30 minutes, with the page automatically refreshed every 10 minutes)

About weather observations | Map of weather stations | Latest weather observations for QLD | Other Formats
Station Details ID: 029077 Name: BURKETOWN AIRPORT Lat: -17.75 Lon: 139.54 Height: 5.7 m
Data from the previous 72 hours. | See also: Recent months at Burketown Airport
Date/Time
EST
Temp
°C
App
Temp
°C
Dew
Point
°C
Rel
Hum
%
Delta-T
°C
Wind Press
QNH
hPa
Press
MSL
hPa
Rain since
9am
mm
Dir  Spd
km/h
Gust
km/h
Spd
kts
Gust
kts
28/11:30pm 27.2 28.3 22.4 75 3.2 NNW 20 28 11 15 1009.3 - 0.0
28/11:00pm 27.0 28.7 22.4 76 3.1 NNW 17 22 9 12 1009.3 - 0.0
28/10:30pm 27.3 28.6 22.7 76 3.1 NNW 20 28 11 15 1009.0 - 0.0
28/10:00pm 27.5 27.9 22.4 73 3.4 N 24 30 13 16 1008.9 - 0.0
28/09:30pm 27.6 28.4 22.5 74 3.4 NNW 22 30 12 16 1008.8 - 0.0
28/09:00pm 27.5 28.4 22.7 75 3.3 N 22 32 12 17 1008.5 1008.4 0.0
28/08:30pm 27.6 27.8 22.8 75 3.3 N 26 35 14 19 1008.3 - 0.0
28/08:00pm 27.8 27.1 21.8 70 4.0 N 28 39 15 21 1008.0 - 0.0
28/07:30pm 28.0 27.4 21.3 67 4.5 N 26 35 14 19 1007.8 - 0.0
28/07:00pm 28.7 26.3 19.1 56 6.2 N 30 41 16 22 1007.5 - 0.0
28/06:30pm 30.0 25.3 13.3 36 9.9 N 30 39 16 21 1007.2 - 0.0
28/06:00pm 30.7 27.3 17.7 45 8.3 N 32 44 17 24 1006.9 1006.8 0.0
28/05:30pm 31.8 27.5 17.7 43 9.0 N 37 46 20 25 1006.7 - 0.0
28/05:00pm 33.0 28.8 17.2 39 10.1 N 35 46 19 25 1006.2 - 0.0
28/04:30pm 33.9 30.3 17.2 37 10.7 N 32 43 17 23 1006.1 - 0.0
28/04:00pm 34.2 30.3 16.5 34 11.2 N 32 41 17 22 1006.1 - 0.0
28/03:30pm 35.0 31.6 16.8 34 11.6 N 30 41 16 22 1006.5 - 0.0
28/03:00pm 35.0 31.4 16.3 32 11.9 N 30 41 16 22 1006.8 1006.7 0.0
28/02:30pm 36.4 32.3 13.8 26 13.9 N 28 39 15 21 1006.8 - 0.0
28/02:00pm 36.0 32.4 14.1 27 13.5 N 26 35 14 19 1007.3 - 0.0
28/01:30pm 36.6 33.1 13.4 25 14.2 N 24 33 13 18 1007.7 - 0.0
28/01:00pm 35.7 31.2 11.4 23 14.4 N 26 39 14 21 1008.2 - 0.0
28/12:30pm 35.1 30.5 10.9 23 14.2 N 26 35 14 19 1008.9 - 0.0
28/12:00pm 35.0 29.4 8.7 20 14.9 NNE 28 35 15 19 1009.2 1009.1 0.0
28/11:30am 34.6 30.2 9.1 21 14.5 NNE 22 32 12 17 1009.6 - 0.0
28/11:00am 33.7 29.0 7.6 20 14.5 NNE 22 32 12 17 1010.0 - 0.0
28/10:30am 33.4 27.7 6.6 19 14.6 NNE 26 33 14 18 1010.3 - 0.0
28/10:00am 32.7 27.2 6.1 19 14.3 NNE 24 33 13 18 1010.6 - 0.0
28/09:30am 31.8 26.6 5.3 19 14.0 ENE 22 28 12 15 1010.7 - 0.0
28/09:00am 30.7 25.8 5.2 20 13.4 ENE 20 26 11 14 1010.5 1010.4 0.0
28/08:30am 29.5 25.8 4.2 20 12.9 E 13 19 7 10 1010.5 - 0.0
28/08:00am 27.5 23.9 5.1 24 11.5 SE 13 17 7 9 1010.3 - 0.0
28/07:30am 25.6 23.0 6.3 29 10.0 S 9 11 5 6 1010.0 - 0.0
28/07:00am 24.9 22.3 6.1 30 9.7 S 9 11 5 6 1009.8 - 0.0
28/06:30am 23.4 20.5 6.7 34 8.6 S 11 11 6 6 1009.5 - 0.0
28/06:00am 23.8 21.3 6.6 33 8.9 SSE 9 9 5 5 1009.3 1009.2 0.0
28/05:30am 23.7 21.2 6.5 33 8.8 S 9 11 5 6 1009.3 - 0.0
28/05:00am 23.6 20.8 6.8 34 8.7 S 11 13 6 7 1009.1 - 0.0
28/04:30am 23.2 20.4 6.9 35 8.4 S 11 11 6 6 1009.1 - 0.0
28/04:00am 22.1 18.9 6.7 37 7.9 S 13 13 7 7 1009.1 - 0.0
28/03:30am 22.7 19.8 6.5 35 8.3 SSE 11 13 6 7 1009.2 - 0.0
28/03:00am 23.6 20.6 6.0 32 9.0 SSE 11 13 6 7 1009.4 1009.3 0.0
28/02:30am 24.7 20.9 6.0 30 9.6 SSE 15 20 8 11 1009.5 - 0.0
28/02:00am 25.2 21.3 6.9 31 9.6 SSE 17 22 9 12 1009.9 - 0.0
28/01:30am 25.6 21.7 7.2 31 9.7 SSE 17 20 9 11 1010.4 - 0.0
28/01:00am 26.2 22.6 8.2 32 9.7 SSE 17 24 9 13 1010.9 - 0.0
28/12:30am 27.3 22.8 8.7 31 10.1 SE 22 30 12 16 1011.1 - 0.0
28/12:00am 27.7 22.9 9.0 31 10.3 SE 24 32 13 17 1011.3 1011.2 0.0
 
Date/Time
EST
Temp
°C
App
Temp
°C
Dew
Point
°C
Rel
Hum
%
Delta-T
°C
Wind Press
QNH
hPa
Press
MSL
hPa
Rain since
9am
mm
Dir  Spd
km/h
Gust
km/h
Spd
kts
Gust
kts
27/11:30pm 28.3 23.4 8.6 29 10.8 SE 24 30 13 16 1011.4 - 0.0
27/11:00pm 28.5 23.9 12.4 37 9.4 SE 28 39 15 21 1011.4 - 0.0
27/10:55pm 27.7 24.0 15.0 45 7.7 SE 28 39 15 21 1011.3 - 0.0
27/10:30pm 24.7 26.1 17.7 65 4.4 SE 7 9 4 5 1011.1 - 0.0
27/10:00pm 25.8 27.4 19.2 67 4.2 SSE 9 11 5 6 1011.1 - 0.0
27/09:30pm 26.4 28.6 19.5 66 4.5 S 7 9 4 5 1011.0 - 0.0
27/09:00pm 26.7 29.2 19.8 66 4.5 S 6 9 3 5 1010.9 1010.8 0.0
27/08:30pm 27.0 30.1 20.3 66 4.4 N 4 7 2 4 1010.5 - 0.0
27/08:00pm 27.6 29.7 20.9 67 4.4 N 11 11 6 6 1010.0 - 0.0
27/07:30pm 28.6 30.3 20.1 60 5.6 N 11 13 6 7 1009.7 - 0.0
27/07:00pm 29.7 30.9 19.1 53 6.9 N 11 15 6 8 1009.3 - 0.0
27/06:30pm 31.4 31.2 18.4 46 8.4 N 17 22 9 12 1008.8 - 0.0
27/06:00pm 33.0 31.7 16.8 38 10.3 N 19 22 10 12 1008.5 1008.4 0.0
27/05:30pm 34.0 32.0 15.4 32 11.6 NNE 20 28 11 15 1008.3 - 0.0
27/05:00pm 34.9 32.5 15.3 31 12.3 NNE 22 30 12 16 1008.2 - 0.0
27/04:30pm 35.2 32.5 14.5 29 12.8 NNE 22 32 12 17 1008.0 - 0.0
27/04:00pm 35.0 32.4 14.8 29 12.5 NE 22 33 12 18 1008.0 - 0.0
27/03:30pm 36.3 34.1 14.9 28 13.4 NNE 20 30 11 16 1008.1 - 0.0
27/03:00pm 36.1 32.9 13.0 25 14.1 NE 22 33 12 18 1008.4 1008.3 0.0
27/02:30pm 35.7 33.1 13.8 27 13.4 NE 20 32 11 17 1008.9 - 0.0
27/02:00pm 35.9 33.6 14.0 27 13.5 NE 19 32 10 17 1009.4 - 0.0
27/01:30pm 35.6 33.2 13.7 27 13.4 ENE 19 28 10 15 1010.1 - 0.0
27/01:00pm 35.6 33.5 13.7 27 13.4 NE 17 30 9 16 1010.7 - 0.0
27/12:30pm 36.1 33.8 13.0 25 14.0 ENE 17 30 9 16 1011.3 - 0.0
27/12:00pm 35.9 33.4 12.2 24 14.2 NE 17 26 9 14 1011.8 1011.7 0.0
27/11:30am 35.7 31.4 9.3 20 15.2 ENE 22 30 12 16 1012.2 - 0.0
27/11:00am 34.4 30.0 5.0 16 15.7 ENE 17 26 9 14 1012.4 - 0.0
27/10:30am 33.4 28.2 2.3 14 15.8 ESE 19 24 10 13 1012.8 - 0.0
27/10:00am 32.7 26.4 1.7 14 15.5 ESE 24 33 13 18 1012.9 - 0.0
27/09:30am 31.2 25.1 0.6 14 14.9 ESE 22 32 12 17 1013.0 - 0.0
27/09:00am 30.3 23.7 -0.1 14 14.5 SE 24 32 13 17 1013.1 1013.0 0.0
27/08:30am 28.0 22.2 -0.1 16 13.2 SSE 20 24 11 13 1013.0 - 0.0
27/08:00am 26.5 21.1 1.0 19 12.1 S 19 22 10 12 1012.7 - 0.0
27/07:30am 24.6 21.4 3.3 25 10.4 ESE 9 11 5 6 1012.0 - 0.0
27/07:00am 22.6 19.3 2.7 27 9.5 E 9 13 5 7 1011.3 - 0.0
27/06:30am 22.0 18.2 1.6 26 9.4 SE 11 20 6 11 1011.1 - 0.0
27/06:00am 23.0 18.0 1.4 24 10.1 S 17 20 9 11 1010.2 1010.1 0.0
27/05:30am 22.7 17.1 3.3 28 9.3 S 22 24 12 13 1010.0 - 0.0
27/05:00am 23.2 18.3 4.2 29 9.3 S 19 24 10 13 1009.8 - 0.0
27/04:30am 23.8 19.3 4.2 28 9.7 S 17 19 9 10 1009.6 - 0.0
27/04:00am 24.1 19.7 5.0 29 9.6 S 17 20 9 11 1009.3 - 0.0
27/03:30am 23.3 19.2 6.1 33 8.8 S 17 19 9 10 1009.4 - 0.0
27/03:00am 23.2 19.5 6.5 34 8.6 SSW 15 17 8 9 1009.5 1009.4 0.0
27/02:30am 23.0 19.6 7.5 37 8.1 S 15 17 8 9 1009.7 - 0.0
27/02:00am 23.4 20.9 8.3 38 8.0 S 11 11 6 6 1010.1 - 0.0
27/01:30am 23.4 21.1 9.0 40 7.7 S 11 13 6 7 1010.5 - 0.0
27/01:00am 24.7 22.5 7.8 34 8.9 SSE 9 11 5 6 1010.5 - 0.0
27/12:30am 25.2 22.6 7.8 33 9.2 SSE 11 13 6 7 1010.8 - 0.0
27/12:00am 25.7 23.1 7.8 32 9.5 SSE 11 13 6 7 1011.0 1010.9 0.0
 
Date/Time
EST
Temp
°C
App
Temp
°C
Dew
Point
°C
Rel
Hum
%
Delta-T
°C
Wind Press
QNH
hPa
Press
MSL
hPa
Rain since
9am
mm
Dir  Spd
km/h
Gust
km/h
Spd
kts
Gust
kts
26/11:30pm 26.2 23.7 8.2 32 9.7 SSE 11 13 6 7 1011.2 - 0.0
26/11:00pm 26.8 24.4 8.7 32 9.8 SSE 11 13 6 7 1011.4 - 0.0
26/10:30pm 26.4 24.4 10.1 36 9.1 SSE 11 13 6 7 1011.1 - 0.0
26/10:00pm 25.3 25.3 14.1 50 6.6 S 7 9 4 5 1011.1 - 0.0
26/09:30pm 26.8 26.0 11.7 39 8.6 S 7 9 4 5 1011.1 - 0.0
26/09:00pm 27.3 26.3 10.9 36 9.3 S 7 11 4 6 1010.9 1010.8 0.0
26/08:30pm 28.3 27.8 10.9 34 9.9 SSW 4 6 2 3 1010.6 - 0.0
26/08:00pm 30.1 30.9 12.5 34 10.4 CALM 0 0 0 0 1010.2 - 0.0
26/07:30pm 30.4 30.0 12.3 33 10.6 N 6 7 3 4 1009.8 - 0.0
26/07:00pm 31.7 31.0 12.0 30 11.6 NNE 7 11 4 6 1009.2 - 0.0
26/06:30pm 33.5 31.6 11.9 27 12.8 N 13 15 7 8 1008.7 - 0.0
26/06:00pm 34.9 32.3 10.7 23 14.2 NNE 15 20 8 11 1008.2 1008.1 0.0
26/05:30pm 36.2 32.6 10.4 21 15.1 NNE 20 28 11 15 1007.7 - 0.0
26/05:00pm 37.3 32.7 9.8 19 16.0 NNE 24 32 13 17 1007.5 - 0.0
26/04:30pm 38.3 34.1 9.8 18 16.7 NNE 22 32 12 17 1007.2 - 0.0
26/04:00pm 38.8 34.5 9.4 17 17.1 NNE 22 35 12 19 1007.0 - 0.0
26/03:30pm 39.2 36.1 5.7 13 18.5 S 11 24 6 13 1007.5 - 0.0
26/03:00pm 38.8 35.9 6.5 14 18.1 ENE 11 20 6 11 1007.6 1007.5 0.0
26/02:30pm 39.1 35.0 7.7 15 17.9 SE 19 32 10 17 1007.8 - 0.0
26/02:00pm 38.5 34.3 7.3 15 17.6 SSE 19 32 10 17 1008.3 - 0.0
26/01:30pm 38.7 34.3 7.4 15 17.7 SE 20 26 11 14 1008.9 - 0.0
26/01:00pm 38.0 33.5 8.7 17 16.8 E 22 28 12 15 1009.6 - 0.0
26/12:30pm 37.3 33.3 9.0 18 16.3 ESE 20 28 11 15 1010.3 - 0.0
26/12:00pm 36.6 32.3 9.2 19 15.8 ESE 22 30 12 16 1011.0 1010.9 0.0
26/11:30am 35.9 31.2 9.4 20 15.2 ESE 24 39 13 21 1011.4 - 0.0
26/11:00am 34.2 28.6 8.8 21 14.4 ESE 28 39 15 21 1012.0 - 0.0
26/10:30am 33.1 27.8 8.5 22 13.8 ESE 26 37 14 20 1012.6 - 0.0
26/10:00am 32.1 26.4 8.4 23 13.2 E 28 35 15 19 1012.9 - 0.0
26/09:30am 30.8 25.4 7.9 24 12.6 ESE 26 35 14 19 1013.1 - 0.0
26/09:00am 28.9 23.9 8.0 27 11.4 SE 24 33 13 18 1013.2 1013.1 0.0
26/08:30am 27.7 21.6 8.1 29 10.6 ESE 30 43 16 23 1013.1 - 0.0
26/08:00am 26.3 19.6 7.4 30 10.0 SE 32 41 17 22 1012.9 - 0.0
26/07:30am 25.1 20.3 7.3 32 9.4 SSE 22 32 12 17 1012.2 - 0.0
26/07:00am 23.2 19.3 7.3 36 8.3 S 17 20 9 11 1011.8 - 0.0
26/06:30am 22.8 19.4 7.8 38 7.9 SSE 15 19 8 10 1011.4 - 0.0
26/06:00am 23.2 19.5 8.1 38 8.0 SSE 17 20 9 11 1011.0 1010.9 0.0
26/05:30am 22.9 19.5 9.0 41 7.4 S 17 19 9 10 1010.6 - 0.0
26/05:00am 23.5 20.2 9.5 41 7.6 S 17 20 9 11 1010.3 - 0.0
26/04:30am 23.7 20.9 10.0 42 7.5 S 15 20 8 11 1010.1 - 0.0
26/04:00am 23.9 21.1 11.2 44 7.1 S 17 22 9 12 1010.3 - 0.0
26/03:30am 23.5 21.5 11.5 47 6.7 SSE 13 15 7 8 1010.2 - 0.0
26/03:00am 22.6 21.0 11.7 50 6.1 SE 11 13 6 7 1010.2 1010.1 0.0
26/02:30am 23.3 21.8 12.0 49 6.4 SSE 11 13 6 7 1010.3 - 0.0
26/02:00am 23.2 22.2 12.2 50 6.2 SSE 9 11 5 6 1010.5 - 0.0
26/01:30am 23.6 22.2 12.3 49 6.4 SSE 11 13 6 7 1010.8 - 0.0
26/01:00am 24.3 22.4 12.9 49 6.6 SSE 15 19 8 10 1010.9 - 0.0
26/12:30am 23.6 22.1 13.2 52 6.0 SE 13 17 7 9 1010.9 - 0.0
26/12:00am 23.5 22.7 12.8 51 6.2 SSE 9 15 5 8 1010.8 1010.7 0.0

Other Formats:

Comma delimited format used in spreadsheet applications
http://www.bom.gov.au/fwo/IDQ60801/IDQ60801.94260.axf

JavaScript Object Notation format (JSON) in row-major order
http://www.bom.gov.au/fwo/IDQ60801/IDQ60801.94260.json